Time;durP1;ratioP1;P1;durP2;ratioP2;P2;SDS_P1;SDS_P2;PMS_P1;PMS_P2;Temp;Humidity;BMP_temperature;BMP_pressure;BME280_temperature;BME280_humidity;BME280_pressure;Samples;Min_cycle;Max_cycle;Signal;HPM_P1;HPM_P2
2022/06/04 00:01:51;;;;;;;16.60;14.40;;;;;;;18.63;90.91;100956.97;4976017;28;20506;-69
2022/06/04 00:04:18;;;;;;;18.55;14.73;;;;;;;18.87;90.05;100956.75;4959346;28;20062;-64
2022/06/04 00:06:46;;;;;;;16.17;14.23;;;;;;;18.89;89.83;100958.03;4976483;28;20043;-64
2022/06/04 00:09:15;;;;;;;17.48;14.77;;;;;;;19.20;88.28;100956.28;4943729;28;20057;-63
2022/06/04 00:17:16;;;;;;;16.75;14.95;;;;;;;18.84;89.49;100951.91;4945362;28;20514;-69
2022/06/04 00:19:44;;;;;;;20.90;15.90;;;;;;;18.65;90.06;100949.88;4970169;28;20054;-64
2022/06/04 00:22:11;;;;;;;19.20;16.05;;;;;;;18.60;91.16;100950.13;4990850;28;20057;-63
2022/06/04 00:24:40;;;;;;;17.73;15.68;;;;;;;18.74;90.48;100947.66;4975393;28;20055;-64
2022/06/04 00:27:14;;;;;;;20.08;16.13;;;;;;;18.64;90.14;100942.66;4991283;28;20047;-63
2022/06/04 00:29:41;;;;;;;22.10;17.10;;;;;;;18.55;90.93;100950.41;4975163;28;20434;-69
2022/06/04 00:32:09;;;;;;;20.25;16.27;;;;;;;18.55;90.79;100955.19;4976312;28;20061;-69
2022/06/04 00:34:36;;;;;;;21.15;16.42;;;;;;;18.79;90.39;100969.72;4975092;28;20054;-70
2022/06/04 00:37:04;;;;;;;19.92;16.13;;;;;;;18.81;89.08;100956.22;4976232;28;20046;-70
2022/06/04 00:39:31;;;;;;;19.42;16.83;;;;;;;18.56;91.03;100960.41;4992021;28;20065;-69
2022/06/04 00:42:08;;;;;;;19.25;15.77;;;;;;;18.59;90.92;100948.50;4995906;28;20054;-69
2022/06/04 00:45:26;;;;;;;19.98;15.13;;;;;;;18.61;89.99;100946.19;4994569;28;20066;-69
2022/06/04 00:47:54;;;;;;;20.75;17.38;;;;;;;18.35;91.20;100934.72;4952942;28;20058;-69
2022/06/04 00:50:22;;;;;;;19.70;16.75;;;;;;;18.23;92.33;100934.00;4995631;28;20046;-69
2022/06/04 00:52:50;;;;;;;20.48;16.55;;;;;;;18.21;93.60;100923.22;4994207;28;20061;-70
2022/06/04 00:55:18;;;;;;;21.63;16.48;;;;;;;18.34;92.36;100916.38;4978143;28;20057;-69
2022/06/04 00:57:58;;;;;;;18.48;15.65;;;;;;;18.52;91.25;100917.66;4978260;28;20406;-70
2022/06/04 01:00:33;;;;;;;21.08;16.52;;;;;;;18.51;90.54;100913.25;4995486;28;20069;-69
2022/06/04 01:03:29;;;;;;;19.10;15.63;;;;;;;18.63;90.61;100915.13;4978709;28;20405;-69
2022/06/04 01:06:24;;;;;;;18.60;16.10;;;;;;;18.53;90.01;100924.84;4961910;28;20071;-69
2022/06/04 01:08:51;;;;;;;18.90;16.75;;;;;;;18.64;89.97;100922.31;4995535;28;20046;-71
2022/06/04 01:11:32;;;;;;;19.00;16.63;;;;;;;18.53;90.09;100922.03;4995493;28;20058;-69
2022/06/04 01:14:32;;;;;;;18.13;15.63;;;;;;;18.54;90.10;100914.50;4997695;28;20054;-69
2022/06/04 01:17:05;;;;;;;21.33;16.27;;;;;;;18.85;88.86;100908.84;4972664;28;20397;-70
2022/06/04 01:19:55;;;;;;;18.63;15.65;;;;;;;18.75;88.36;100915.00;4987268;28;20054;-69
2022/06/04 01:22:38;;;;;;;19.45;15.68;;;;;;;18.56;89.00;100906.56;4979948;28;20402;-70
2022/06/04 01:25:35;;;;;;;18.02;15.43;;;;;;;18.72;89.51;100902.59;4980108;28;20517;-70
2022/06/04 01:28:11;;;;;;;17.20;15.40;;;;;;;18.71;88.60;100891.78;4929878;28;20058;-70
2022/06/04 01:30:43;;;;;;;28.15;16.35;;;;;;;18.74;88.38;100882.69;4957081;29;20062;-70
2022/06/04 01:33:19;;;;;;;17.90;14.85;;;;;;;18.73;88.05;100881.88;4954755;28;20065;-70
2022/06/04 01:36:02;;;;;;;22.05;15.73;;;;;;;18.45;89.20;100885.97;4962188;28;20077;-69
2022/06/04 01:38:30;;;;;;;20.83;16.05;;;;;;;18.20;91.53;100885.34;4962251;28;20054;-64
2022/06/04 01:41:05;;;;;;;21.52;15.35;;;;;;;18.62;89.80;100877.25;4994149;28;20055;-69
2022/06/04 01:43:35;;;;;;;17.92;15.18;;;;;;;18.64;89.13;100878.47;4962413;28;20503;-69
2022/06/04 01:46:09;;;;;;;17.85;14.45;;;;;;;18.57;89.04;100885.88;4978974;28;20529;-69
2022/06/04 01:48:38;;;;;;;19.35;15.30;;;;;;;18.40;89.99;100881.50;4979197;28;20066;-63
2022/06/04 01:51:06;;;;;;;17.40;15.60;;;;;;;18.49;89.83;100876.53;4978197;28;20394;-69
2022/06/04 01:53:36;;;;;;;19.67;14.52;;;;;;;18.71;88.60;100873.06;4979373;28;20522;-70
2022/06/04 01:56:08;;;;;;;;;;;;;;;18.68;88.08;100868.22;4977545;28;20411;-63
2022/06/04 01:58:58;;;;;;;19.25;14.20;;;;;;;18.69;88.06;100877.41;4978009;28;19922;-64
2022/06/04 02:01:30;;;;;;;16.30;13.93;;;;;;;18.67;88.01;100879.75;4978809;28;20054;-64
2022/06/04 02:04:05;;;;;;;19.35;14.57;;;;;;;18.69;87.75;100874.63;4979148;28;20454;-70
2022/06/04 02:06:40;;;;;;;18.02;14.25;;;;;;;18.69;88.22;100878.19;4978787;28;20256;-69
2022/06/04 02:09:13;;;;;;;20.55;14.70;;;;;;;18.63;88.04;100873.25;4979033;28;20061;-69
2022/06/04 02:11:53;;;;;;;18.60;14.27;;;;;;;18.33;90.03;100880.47;4961359;28;20061;-64
2022/06/04 02:14:20;;;;;;;17.40;13.73;;;;;;;18.42;89.00;100886.72;4977662;28;20647;-69
2022/06/04 02:16:53;;;;;;;20.80;14.77;;;;;;;18.16;90.27;100878.88;4978500;28;20650;-70
2022/06/04 02:19:20;;;;;;;19.20;14.18;;;;;;;18.29;91.36;100891.53;4989393;28;20047;-69
2022/06/04 02:21:47;;;;;;;18.48;14.13;;;;;;;18.43;89.43;100885.56;4978903;28;20061;-69
2022/06/04 02:24:15;;;;;;;18.30;13.77;;;;;;;18.68;88.52;100893.31;4977048;28;20054;-71
2022/06/04 02:26:42;;;;;;;18.88;13.50;;;;;;;18.58;88.24;100882.75;4976802;28;20484;-70
2022/06/04 02:29:10;;;;;;;19.30;14.27;;;;;;;18.40;88.61;100886.22;4993383;28;20050;-69
2022/06/04 02:31:46;;;;;;;15.30;13.80;;;;;;;17.89;91.37;100880.56;4961319;28;20051;-71
2022/06/04 02:34:27;;;;;;;17.25;14.05;;;;;;;17.71;94.06;100881.28;4978540;28;20054;-70
2022/06/04 02:37:02;;;;;;;17.38;13.57;;;;;;;17.74;94.21;100878.59;4978214;28;20081;-70
2022/06/04 02:39:41;;;;;;;23.30;14.05;;;;;;;17.97;93.83;100862.84;4961362;28;20509;-69
2022/06/04 02:42:15;;;;;;;18.67;13.23;;;;;;;18.24;91.31;100868.69;4993472;28;20050;-71
2022/06/04 02:44:52;;;;;;;14.90;13.25;;;;;;;18.29;90.25;100879.59;4978665;28;20505;-70
2022/06/04 02:47:31;;;;;;;16.98;12.85;;;;;;;18.36;89.97;100886.13;4993209;28;20503;-69
2022/06/04 02:50:13;;;;;;;16.33;12.13;;;;;;;18.40;88.91;100880.66;4976428;28;20062;-70
2022/06/04 02:52:41;;;;;;;16.38;13.23;;;;;;;18.38;89.27;100866.25;4978061;28;20055;-69
2022/06/04 02:55:11;;;;;;;20.75;13.00;;;;;;;18.07;90.68;100860.69;4976689;28;20061;-69
2022/06/04 02:57:46;;;;;;;16.25;13.18;;;;;;;18.01;91.21;100864.94;4977573;28;20555;-70
2022/06/04 03:00:17;;;;;;;16.75;13.48;;;;;;;18.22;91.24;100866.28;4992640;28;20059;-69
2022/06/04 03:02:45;;;;;;;14.18;12.07;;;;;;;18.47;89.05;100853.78;4960790;28;20081;-70
2022/06/04 03:05:16;;;;;;;17.90;13.27;;;;;;;18.33;88.78;100849.78;4978061;28;20062;-69
2022/06/04 03:07:46;;;;;;;19.08;12.60;;;;;;;18.43;88.75;100852.88;4976529;28;20047;-70
2022/06/04 03:10:21;;;;;;;15.50;12.85;;;;;;;18.53;88.00;100860.66;4977883;28;20058;-70
2022/06/04 03:12:48;;;;;;;14.07;12.18;;;;;;;18.71;87.23;100842.38;4992609;28;20055;-70
2022/06/04 03:15:15;;;;;;;18.48;12.43;;;;;;;18.90;85.91;100834.00;4976227;28;20525;-69
2022/06/04 03:17:45;;;;;;;18.00;12.20;;;;;;;18.82;85.45;100840.63;4975558;28;20494;-69
2022/06/04 03:20:22;;;;;;;14.65;12.95;;;;;;;18.81;85.67;100829.84;4977652;28;20058;-69
2022/06/04 03:22:50;;;;;;;17.80;12.50;;;;;;;18.92;84.98;100809.34;4976208;28;20066;-70
2022/06/04 03:25:19;;;;;;;16.00;12.30;;;;;;;18.93;85.02;100810.16;4977693;28;20047;-69
2022/06/04 03:27:47;;;;;;;23.33;14.07;;;;;;;18.98;84.55;100812.66;4977277;28;20042;-70
2022/06/04 03:30:15;;;;;;;17.77;12.73;;;;;;;18.89;84.95;100826.81;4975591;28;20051;-69
2022/06/04 03:32:43;;;;;;;17.02;12.57;;;;;;;18.91;84.78;100830.06;4977503;28;20054;-70
2022/06/04 03:35:11;;;;;;;15.73;12.60;;;;;;;18.90;84.92;100831.22;4977114;28;20532;-70
2022/06/04 03:37:38;;;;;;;15.23;11.73;;;;;;;18.96;84.64;100831.75;4974608;28;20066;-69
2022/06/04 03:40:07;;;;;;;16.17;12.52;;;;;;;18.97;84.62;100831.38;4977219;28;20059;-69
2022/06/04 03:42:34;;;;;;;16.38;11.85;;;;;;;19.05;84.42;100830.38;4977108;28;20061;-69
2022/06/04 03:45:04;;;;;;;18.80;12.30;;;;;;;19.04;84.37;100828.72;4991824;28;20069;-70
2022/06/04 03:47:38;;;;;;;17.52;12.30;;;;;;;18.89;84.63;100823.22;4975661;28;20062;-69
2022/06/04 03:50:15;;;;;;;18.38;11.77;;;;;;;19.04;84.55;100825.94;4960778;28;20422;-69
2022/06/04 03:52:45;;;;;;;15.25;12.50;;;;;;;19.12;83.13;100840.88;4975673;28;20058;-69
2022/06/04 03:55:14;;;;;;;16.30;12.68;;;;;;;18.76;85.34;100849.63;4991944;28;20050;-69
2022/06/04 03:57:48;;;;;;;13.82;12.35;;;;;;;19.04;84.26;100839.91;4976630;28;20058;-69
2022/06/04 04:00:39;;;;;;;13.02;11.65;;;;;;;19.23;83.22;100841.88;4976944;28;20047;-70
2022/06/04 04:03:18;;;;;;;14.70;11.77;;;;;;;19.20;82.78;100851.00;4976934;28;20058;-70
2022/06/04 04:05:48;;;;;;;14.85;12.07;;;;;;;19.22;83.29;100859.81;4991482;28;20422;-69
2022/06/04 04:08:16;;;;;;;14.57;12.27;;;;;;;19.23;82.77;100846.66;4975279;28;20043;-70
2022/06/04 04:10:45;;;;;;;13.57;11.50;;;;;;;19.17;83.13;100862.09;4976676;28;20065;-70
2022/06/04 04:13:14;;;;;;;14.77;11.35;;;;;;;19.33;82.64;100863.66;4943835;28;20046;-69
2022/06/04 04:15:42;;;;;;;16.90;11.95;;;;;;;19.45;81.63;100882.25;4975469;28;20360;-70
2022/06/04 04:18:09;;;;;;;15.40;11.27;;;;;;;19.49;82.05;100888.72;4975087;28;20046;-70
2022/06/04 04:20:39;;;;;;;13.73;10.85;;;;;;;19.39;81.73;100900.47;4976666;28;20073;-69
2022/06/04 04:23:07;;;;;;;18.00;10.43;;;;;;;19.29;81.79;100909.41;4976538;28;20066;-70
2022/06/04 04:25:36;;;;;;;20.08;10.70;;;;;;;19.07;83.20;100934.09;4976745;28;20050;-69
2022/06/04 04:28:04;;;;;;;16.55;9.77;;;;;;;19.21;83.43;100941.19;4976385;28;20046;-69
2022/06/04 04:30:33;;;;;;;18.98;10.43;;;;;;;19.17;83.21;100937.47;4974989;28;20081;-70
2022/06/04 04:33:01;;;;;;;12.75;9.93;;;;;;;19.18;82.98;100922.38;4976507;28;20055;-70
2022/06/04 04:35:31;;;;;;;11.48;9.40;;;;;;;19.22;82.76;100935.22;4959306;28;20050;-70
2022/06/04 04:37:59;;;;;;;14.43;8.88;;;;;;;19.42;82.37;100942.44;4974094;28;20046;-69
2022/06/04 04:40:29;;;;;;;11.90;9.23;;;;;;;19.44;81.86;100939.31;4976416;28;20054;-70
2022/06/04 04:42:57;;;;;;;12.77;9.37;;;;;;;19.33;81.54;100947.47;4976468;28;20608;-69
2022/06/04 04:45:25;;;;;;;19.75;9.55;;;;;;;19.25;82.60;100959.63;4976165;28;20302;-69
2022/06/04 04:47:53;;;;;;;11.75;8.60;;;;;;;19.38;82.29;100954.75;4975863;28;20051;-70
2022/06/04 04:50:25;;;;;;;14.60;9.68;;;;;;;19.29;82.26;100946.53;4976253;28;20074;-71
2022/06/04 04:52:53;;;;;;;13.25;9.10;;;;;;;19.25;82.53;100950.44;4976146;28;20066;-70
2022/06/04 04:55:29;;;;;;;12.38;9.70;;;;;;;19.20;82.55;100954.31;4976024;28;20074;-70
2022/06/04 04:57:57;;;;;;;13.75;10.10;;;;;;;19.29;82.93;100931.75;4958448;28;20047;-71
2022/06/04 05:00:24;;;;;;;11.50;9.40;;;;;;;19.49;81.81;100934.22;4974798;28;20058;-69
2022/06/04 05:02:51;;;;;;;13.50;9.57;;;;;;;19.42;81.73;100938.88;4976314;28;20047;-70
2022/06/04 05:05:19;;;;;;;13.32;9.32;;;;;;;19.23;82.64;100936.03;4974616;28;20062;-69
2022/06/04 05:07:46;;;;;;;15.32;9.88;;;;;;;19.05;83.09;100944.84;4974539;28;20442;-70
2022/06/04 05:10:14;;;;;;;14.88;9.68;;;;;;;19.17;83.37;100935.50;4976162;28;20062;-70
2022/06/04 05:12:41;;;;;;;15.15;8.95;;;;;;;19.09;83.87;100928.94;4975942;28;20634;-69
2022/06/04 05:15:10;;;;;;;14.55;9.50;;;;;;;19.13;83.69;100945.78;4958635;28;20414;-69
2022/06/04 05:17:37;;;;;;;13.10;9.32;;;;;;;19.27;82.83;100951.69;4975687;28;20051;-69
2022/06/04 05:20:05;;;;;;;13.77;9.65;;;;;;;19.04;84.14;100946.00;4984276;28;20059;-69
2022/06/04 05:22:32;;;;;;;17.13;8.75;;;;;;;18.78;85.46;100939.38;4995235;28;20521;-69
2022/06/04 05:25:01;;;;;;;13.55;9.85;;;;;;;18.80;86.27;100917.50;4995451;28;20066;-71
2022/06/04 05:27:29;;;;;;;15.82;8.93;;;;;;;19.06;84.58;100895.38;4995307;28;20521;-70
2022/06/04 05:29:56;;;;;;;14.43;9.23;;;;;;;19.09;83.95;100900.22;4995373;28;20058;-70
2022/06/04 05:32:24;;;;;;;14.80;9.23;;;;;;;19.19;84.07;100896.03;4995355;28;20062;-70
2022/06/04 05:34:51;;;;;;;10.07;8.57;;;;;;;19.24;83.53;100888.19;4995305;28;20054;-69
2022/06/04 05:37:18;;;;;;;13.20;8.85;;;;;;;19.26;83.14;100871.88;4993177;28;20058;-70
2022/06/04 05:39:46;;;;;;;14.93;9.23;;;;;;;19.38;83.51;100879.31;4994982;28;20063;-69
2022/06/04 05:42:13;;;;;;;15.93;8.90;;;;;;;19.37;83.34;100889.66;5010403;28;20057;-70
2022/06/04 05:44:41;;;;;;;16.38;9.57;;;;;;;19.37;82.65;100889.66;4993978;28;20054;-71
2022/06/04 05:47:09;;;;;;;12.70;9.05;;;;;;;19.27;83.32;100895.81;4977912;28;20050;-70
2022/06/04 05:49:37;;;;;;;12.48;9.00;;;;;;;19.26;83.63;100901.78;4977917;28;20379;-70
2022/06/04 05:52:04;;;;;;;13.95;9.60;;;;;;;19.45;83.36;100912.97;4995018;28;20089;-69
2022/06/04 05:54:32;;;;;;;15.10;9.40;;;;;;;19.24;82.93;100924.50;4995187;28;20066;-70
2022/06/04 05:56:59;;;;;;;15.65;9.77;;;;;;;19.47;83.40;100936.59;4995239;28;20429;-70
2022/06/04 05:59:27;;;;;;;14.45;8.82;;;;;;;19.67;82.29;100940.97;4994779;28;20512;-70
2022/06/04 06:01:54;;;;;;;17.35;8.98;;;;;;;19.57;82.16;100938.78;4981410;28;20057;-69
2022/06/04 06:04:22;;;;;;;14.57;8.85;;;;;;;19.60;81.16;100971.59;4997383;28;20054;-70
2022/06/04 06:06:51;;;;;;;12.57;8.55;;;;;;;19.38;81.24;101011.44;4997988;28;20513;-71
2022/06/04 06:09:20;;;;;;;12.63;8.93;;;;;;;19.41;82.49;100999.50;4998294;28;20355;-69
2022/06/04 06:11:48;;;;;;;25.23;9.27;;;;;;;19.40;83.25;100981.16;4981183;28;20050;-70
2022/06/04 06:14:16;;;;;;;16.10;9.27;;;;;;;19.78;81.08;100972.75;4981326;28;20042;-70
2022/06/04 06:16:46;;;;;;;16.00;9.95;;;;;;;20.05;80.10;100963.28;4998384;28;20050;-71
2022/06/04 06:19:15;;;;;;;15.63;9.25;;;;;;;19.48;81.98;100984.88;4989783;28;20069;-71
2022/06/04 06:21:43;;;;;;;12.05;8.40;;;;;;;19.51;81.10;101014.91;4977652;28;20074;-70
2022/06/04 06:24:12;;;;;;;14.35;9.35;;;;;;;19.62;81.54;101032.69;4977707;28;20058;-71
2022/06/04 06:27:08;;;;;;;19.15;9.23;;;;;;;19.68;81.27;101026.44;4961706;28;20411;-70
2022/06/04 06:29:37;;;;;;;14.05;9.35;;;;;;;19.58;82.17;101027.03;4976702;28;20081;-70
2022/06/04 06:32:04;;;;;;;15.23;10.32;;;;;;;19.55;82.30;101011.00;4993407;28;20065;-70
2022/06/04 06:34:32;;;;;;;13.93;10.02;;;;;;;19.61;82.25;101012.34;4978543;28;20617;-69
2022/06/04 06:37:00;;;;;;;15.85;10.90;;;;;;;19.47;82.62;101009.25;4961662;28;20529;-71
2022/06/04 06:39:27;;;;;;;17.13;11.48;;;;;;;19.50;83.26;101021.66;4957871;29;20062;-70
2022/06/04 06:41:54;;;;;;;16.92;10.90;;;;;;;19.68;82.20;101015.25;4959506;29;20055;-70
2022/06/04 06:44:35;;;;;;;18.65;11.52;;;;;;;19.54;82.26;101031.75;4959009;28;20047;-69
2022/06/04 06:47:03;;;;;;;21.50;10.07;;;;;;;19.45;83.22;101045.13;4959068;29;20067;-69
2022/06/04 06:49:30;;;;;;;17.42;11.65;;;;;;;19.63;82.82;101034.34;4972794;28;20050;-69
2022/06/04 06:52:00;;;;;;;15.80;10.65;;;;;;;19.80;82.01;101022.72;4976930;28;20062;-69
2022/06/04 06:54:36;;;;;;;14.48;10.75;;;;;;;19.58;82.94;101021.44;4978187;28;20047;-69
2022/06/04 06:57:06;;;;;;;17.88;11.82;;;;;;;19.53;82.65;101010.56;4978474;28;20051;-69
2022/06/04 06:59:34;;;;;;;15.83;11.50;;;;;;;19.36;84.08;101004.56;4977743;28;20059;-70
2022/06/04 07:02:01;;;;;;;18.92;12.55;;;;;;;19.53;83.23;100995.75;4993160;28;20402;-69
2022/06/04 07:04:29;;;;;;;20.85;13.10;;;;;;;19.62;82.99;100982.38;4977130;28;20051;-70
2022/06/04 07:06:58;;;;;;;17.55;11.85;;;;;;;19.61;83.30;100984.41;4978120;28;20065;-70
2022/06/04 07:09:32;;;;;;;15.68;11.60;;;;;;;19.54;84.01;100991.81;4976579;28;20038;-68
2022/06/04 07:12:00;;;;;;;15.00;11.52;;;;;;;19.71;83.45;100983.81;4978131;28;20047;-69
2022/06/04 07:14:27;;;;;;;16.42;11.43;;;;;;;19.68;83.00;100973.34;4976261;28;20080;-70
2022/06/04 07:16:56;;;;;;;14.80;11.50;;;;;;;19.69;83.43;100962.97;4977494;28;20055;-69
2022/06/04 07:19:25;;;;;;;13.55;11.52;;;;;;;19.63;83.61;100958.88;4977356;28;20066;-71
2022/06/04 07:21:54;;;;;;;17.98;12.00;;;;;;;19.82;82.73;100973.63;4992333;28;20058;-70
2022/06/04 07:24:22;;;;;;;17.92;12.68;;;;;;;19.93;82.43;100983.03;4992569;28;20059;-69
2022/06/04 07:26:49;;;;;;;16.80;11.95;;;;;;;19.67;83.19;100988.50;4977602;28;20062;-69
2022/06/04 07:29:18;;;;;;;16.80;12.20;;;;;;;19.49;85.07;101008.88;4960177;28;20402;-71
2022/06/04 07:31:54;;;;;;;17.05;12.43;;;;;;;19.65;84.93;101024.38;4976660;28;20070;-70
2022/06/04 07:34:21;;;;;;;16.80;12.25;;;;;;;19.93;83.89;101027.78;4977475;28;20069;-70
2022/06/04 07:36:52;;;;;;;17.35;11.75;;;;;;;19.64;84.94;101019.97;4977386;28;20061;-70
2022/06/04 07:39:19;;;;;;;15.07;11.68;;;;;;;19.57;85.42;101036.59;4977132;28;20070;-69
2022/06/04 07:41:52;;;;;;;18.83;12.23;;;;;;;19.55;85.23;101052.09;4977570;28;20043;-69
2022/06/04 07:44:21;;;;;;;18.00;12.98;;;;;;;19.59;85.83;101047.41;4992262;28;20055;-70
2022/06/04 07:46:49;;;;;;;19.50;15.82;;;;;;;19.85;85.06;101022.41;4977104;28;20494;-70
2022/06/04 07:49:18;;;;;;;18.65;14.07;;;;;;;19.60;86.23;101013.50;4977109;28;20054;-70
2022/06/04 07:51:45;;;;;;;16.20;13.23;;;;;;;19.62;86.48;101010.34;4977003;28;20047;-69
2022/06/04 07:54:14;;;;;;;17.73;13.75;;;;;;;19.71;86.54;101008.13;4977268;28;20105;-70
2022/06/04 07:56:42;;;;;;;24.58;12.27;;;;;;;19.72;85.54;101015.34;4975653;28;20660;-70
2022/06/04 07:59:11;;;;;;;22.35;13.95;;;;;;;19.59;85.15;101025.88;4976891;28;20051;-70
2022/06/04 08:01:39;;;;;;;20.85;15.48;;;;;;;19.38;87.14;101011.44;4959577;28;20062;-69
2022/06/04 08:04:07;;;;;;;18.70;14.18;;;;;;;19.32;87.18;100989.75;4975293;28;20050;-70
2022/06/04 08:06:34;;;;;;;20.33;14.00;;;;;;;19.43;87.53;100991.59;4975683;28;20057;-71
2022/06/04 08:09:02;;;;;;;18.08;14.35;;;;;;;19.51;87.23;101000.94;4976886;28;20057;-70
2022/06/04 08:11:31;;;;;;;19.48;14.32;;;;;;;19.63;87.37;100996.00;4976932;28;20502;-70
2022/06/04 08:14:10;;;;;;;18.80;15.75;;;;;;;19.53;87.46;100995.75;4991810;28;20131;-71
2022/06/04 08:16:41;;;;;;;17.85;15.88;;;;;;;19.89;85.19;100998.94;4976840;28;20055;-69
2022/06/04 08:19:09;;;;;;;22.48;16.65;;;;;;;19.86;85.40;101005.25;4976355;28;20042;-64
2022/06/04 08:21:40;;;;;;;22.13;16.38;;;;;;;19.87;85.70;101017.25;4976145;28;20054;-64
2022/06/04 08:24:09;;;;;;;22.63;15.80;;;;;;;19.90;86.16;101019.31;4958575;28;20427;-70
2022/06/04 08:26:37;;;;;;;19.65;16.13;;;;;;;19.98;85.49;101009.88;4991415;28;20058;-70
2022/06/04 08:29:05;;;;;;;19.15;16.17;;;;;;;19.87;85.22;101015.28;4958931;28;20519;-64
2022/06/04 08:31:35;;;;;;;21.95;16.23;;;;;;;20.12;84.12;101026.94;4974779;28;20058;-69
2022/06/04 08:34:05;;;;;;;19.67;16.73;;;;;;;20.31;83.55;101015.75;4976372;28;20062;-64
2022/06/04 08:36:35;;;;;;;23.45;18.38;;;;;;;20.53;82.55;101016.94;4991162;28;20065;-64
2022/06/04 08:39:04;;;;;;;20.25;17.48;;;;;;;20.44;81.29;101025.59;4974208;28;20051;-64
2022/06/04 08:42:10;;;;;;;22.35;16.75;;;;;;;20.62;80.35;101017.50;4959330;28;20061;-70
2022/06/04 08:44:38;;;;;;;27.38;18.52;;;;;;;19.85;83.60;101025.22;4939457;28;20062;-70
2022/06/04 08:47:06;;;;;;;21.02;18.70;;;;;;;20.11;84.22;101020.56;4975162;28;20057;-69
2022/06/04 08:49:39;;;;;;;20.98;17.40;;;;;;;20.38;82.65;101017.88;4990857;28;20494;-69
2022/06/04 08:52:17;;;;;;;21.02;17.00;;;;;;;20.61;81.22;101021.47;4976226;28;20058;-70
2022/06/04 08:58:14;;;;;;;21.60;17.30;;;;;;;20.64;79.36;101029.16;4976620;28;20071;-69
2022/06/04 09:01:28;;;;;;;24.10;16.73;;;;;;;20.64;80.16;101040.34;4975485;28;20054;-71
2022/06/04 09:03:56;;;;;;;21.05;15.10;;;;;;;20.87;78.35;101029.94;4954046;28;20062;-71
2022/06/04 09:06:30;;;;;;;17.65;13.55;;;;;;;21.01;77.40;101030.19;4976092;28;20080;-69
2022/06/04 09:09:17;;;;;;;17.90;14.05;;;;;;;20.82;76.70;101030.25;4975854;28;20051;-70
2022/06/04 09:11:49;;;;;;;17.33;12.68;;;;;;;20.80;75.39;101036.22;4976110;28;20578;-70
2022/06/04 09:14:36;;;;;;;17.65;13.75;;;;;;;20.91;75.49;101042.00;4974800;28;20047;-69
2022/06/04 09:17:17;;;;;;;18.80;14.13;;;;;;;20.81;76.57;101042.63;4959031;28;20055;-70
2022/06/04 09:20:00;;;;;;;19.75;15.82;;;;;;;20.64;76.95;101045.94;4967192;28;20059;-70
2022/06/04 09:22:34;;;;;;;21.60;15.23;;;;;;;20.59;78.07;101043.47;4975689;28;20061;-71
2022/06/04 09:25:05;;;;;;;19.10;14.85;;;;;;;20.71;77.31;101057.28;4990444;28;20083;-70
2022/06/04 09:28:03;;;;;;;17.67;12.93;;;;;;;20.97;75.38;101043.31;4976114;28;20055;-69
2022/06/04 09:30:50;;;;;;;19.52;13.20;;;;;;;21.25;74.20;101038.97;4957920;28;20646;-69
2022/06/04 09:33:39;;;;;;;24.88;13.18;;;;;;;21.48;72.97;101038.13;4976026;28;20055;-70
2022/06/04 09:36:11;;;;;;;18.05;12.73;;;;;;;21.45;72.97;101041.66;4979545;28;20057;-69
2022/06/04 09:38:52;;;;;;;16.10;11.98;;;;;;;21.56;73.18;101043.44;4979484;28;20055;-70
2022/06/04 09:41:22;;;;;;;18.65;12.68;;;;;;;21.53;73.45;101038.56;4978188;28;20051;-70
2022/06/04 09:44:01;;;;;;;15.10;12.40;;;;;;;21.70;71.96;101037.22;4994155;28;20051;-71
2022/06/04 09:46:29;;;;;;;16.00;11.70;;;;;;;21.48;72.09;101043.72;4979628;28;20058;-70
2022/06/04 09:48:57;;;;;;;19.77;10.98;;;;;;;21.53;71.78;101038.56;4978145;28;20533;-69
2022/06/04 09:51:26;;;;;;;15.02;10.95;;;;;;;21.67;71.52;101030.34;4978492;28;20074;-70
2022/06/04 09:54:02;;;;;;;15.18;10.70;;;;;;;21.91;69.98;101038.34;4979671;28;20065;-70
2022/06/04 09:56:34;;;;;;;13.23;10.02;;;;;;;22.05;68.84;101043.31;4979313;28;20061;-70
2022/06/04 09:59:24;;;;;;;11.27;9.75;;;;;;;22.34;67.56;101040.44;4978236;28;20406;-69
2022/06/04 10:01:54;;;;;;;14.63;9.32;;;;;;;22.06;67.21;101034.50;4979411;28;20072;-70
2022/06/04 10:04:23;;;;;;;14.90;9.25;;;;;;;22.28;67.11;101033.53;4977994;28;20617;-71
2022/06/04 10:06:51;;;;;;;16.95;9.52;;;;;;;22.46;66.97;101039.34;4977788;28;20402;-69
2022/06/04 10:12:18;;;;;;;16.00;8.60;;;;;;;22.42;65.81;101041.28;4979228;28;20410;-70
2022/06/04 10:14:57;;;;;;;12.05;8.35;;;;;;;22.60;65.01;101044.31;4978841;28;20055;-63
2022/06/04 10:17:37;;;;;;;12.70;8.00;;;;;;;22.73;64.36;101040.03;4977801;28;20788;-64
2022/06/04 10:20:18;;;;;;;12.68;8.07;;;;;;;22.44;64.71;101038.13;4978709;28;20046;-64
2022/06/04 10:22:50;;;;;;;13.55;7.60;;;;;;;22.78;64.10;101031.25;4993603;28;20054;-71
2022/06/04 10:25:21;;;;;;;12.00;8.35;;;;;;;22.81;63.71;101022.03;4978915;28;20051;-63
2022/06/04 10:28:17;;;;;;;11.90;7.90;;;;;;;22.78;63.21;101028.44;4961587;28;20047;-64
2022/06/04 10:30:52;;;;;;;18.50;10.93;;;;;;;22.92;63.25;101017.31;4960909;28;20538;-64
2022/06/04 10:33:58;;;;;;;13.15;7.82;;;;;;;23.02;62.35;101019.41;4978860;28;20046;-65
2022/06/04 10:36:37;;;;;;;10.15;7.07;;;;;;;22.78;62.76;101017.19;4942445;28;20074;-64
2022/06/04 10:39:15;;;;;;;9.77;6.75;;;;;;;22.83;62.33;101017.66;4977199;28;20093;-64
2022/06/04 10:42:03;;;;;;;11.63;6.72;;;;;;;22.84;62.03;101021.28;4961220;28;20054;-63
2022/06/04 10:44:52;;;;;;;11.07;6.03;;;;;;;23.07;61.88;101025.47;4978191;28;20050;-64
2022/06/04 10:47:36;;;;;;;11.25;6.68;;;;;;;23.24;61.13;101018.38;4977198;28;20042;-65
2022/06/04 10:50:24;;;;;;;10.95;6.55;;;;;;;23.47;60.52;101016.09;4977026;28;20054;-64
2022/06/04 10:52:58;;;;;;;10.48;6.70;;;;;;;23.45;59.49;101010.06;4976872;28;20043;-65
2022/06/04 10:55:34;;;;;;;10.70;6.53;;;;;;;23.78;59.72;101007.00;4993122;28;20047;-70
2022/06/04 10:58:11;;;;;;;10.73;6.28;;;;;;;23.84;59.33;101013.88;4978505;28;20055;-70
2022/06/04 11:00:54;;;;;;;8.27;6.40;;;;;;;23.88;58.86;101008.28;4977840;28;20051;-71
2022/06/04 11:03:28;;;;;;;11.90;8.02;;;;;;;24.05;58.52;101007.56;4960362;28;20061;-69
2022/06/04 11:06:13;;;;;;;10.57;6.18;;;;;;;23.83;58.33;101009.47;4960910;28;20068;-70
2022/06/04 11:08:51;;;;;;;10.48;6.70;;;;;;;23.77;58.14;100993.34;4978063;28;20057;-71
2022/06/04 11:11:20;;;;;;;11.43;6.28;;;;;;;23.95;57.77;100997.88;4992228;28;20055;-70
2022/06/04 11:13:54;;;;;;;11.38;6.63;;;;;;;23.92;58.11;100995.81;4960776;28;20051;-69
2022/06/04 11:16:43;;;;;;;8.65;5.95;;;;;;;24.06;57.01;101004.34;4976730;28;20058;-68
2022/06/04 11:19:25;;;;;;;8.40;5.50;;;;;;;24.06;56.94;100989.47;4972420;28;20066;-68
2022/06/04 11:22:10;;;;;;;17.83;5.97;;;;;;;24.55;55.65;100989.53;4960209;28;20039;-69
2022/06/04 11:24:43;;;;;;;9.98;5.70;;;;;;;24.34;56.49;100989.50;4960453;28;20068;-69
2022/06/04 11:27:32;;;;;;;11.65;6.07;;;;;;;24.49;55.94;100983.53;4960514;28;20392;-70
2022/06/04 11:30:02;;;;;;;8.45;5.10;;;;;;;24.61;55.90;100987.94;4977415;28;20094;-71
2022/06/04 11:33:17;;;;;;;11.15;5.53;;;;;;;24.81;54.88;100977.13;4977526;28;20051;-70
2022/06/04 11:36:01;;;;;;;7.45;4.75;;;;;;;24.80;54.96;100978.31;4932791;29;20060;-69
2022/06/04 11:38:37;;;;;;;9.13;4.97;;;;;;;24.88;54.14;100965.84;4972621;28;20059;-70
2022/06/04 11:41:22;;;;;;;9.48;4.97;;;;;;;25.06;53.98;100972.25;4977320;28;20046;-71
2022/06/04 11:44:11;;;;;;;9.25;4.30;;;;;;;25.32;52.65;100971.78;4976149;28;20058;-71
2022/06/04 11:46:38;;;;;;;9.17;4.83;;;;;;;25.12;53.36;100977.06;4992102;28;20043;-70
2022/06/04 11:49:16;;;;;;;8.73;4.85;;;;;;;25.04;53.41;100972.66;4977213;28;20302;-70
2022/06/04 11:51:53;;;;;;;7.97;4.57;;;;;;;25.33;52.92;100973.41;4975884;28;20065;-71